createdAt,value
2022-10-17T00:00:45.307Z,14.60
2022-10-17T00:03:13.551Z,14.60
2022-10-17T00:05:43.465Z,14.70
2022-10-17T00:08:12.436Z,14.60
2022-10-17T00:10:40.559Z,14.60
2022-10-17T00:13:08.791Z,14.60
2022-10-17T00:15:35.542Z,14.60
2022-10-17T00:18:03.149Z,14.60
2022-10-17T00:20:30.582Z,14.60
2022-10-17T00:22:57.588Z,14.60
2022-10-17T00:25:24.483Z,14.60
2022-10-17T00:27:51.238Z,14.60
2022-10-17T00:30:18.130Z,14.60
2022-10-17T00:32:45.189Z,14.60
2022-10-17T00:35:11.950Z,14.50
2022-10-17T00:37:38.991Z,14.60
2022-10-17T00:40:07.467Z,14.60
2022-10-17T00:42:34.993Z,14.60
2022-10-17T00:45:08.324Z,14.70
2022-10-17T00:47:36.899Z,14.60
2022-10-17T00:50:06.914Z,14.70
2022-10-17T00:52:34.160Z,14.60
2022-10-17T00:55:20.130Z,14.60
2022-10-17T00:57:48.116Z,14.60
2022-10-17T01:00:16.592Z,14.60
2022-10-17T01:02:44.259Z,14.60
2022-10-17T01:05:11.991Z,14.60
2022-10-17T01:07:41.088Z,14.70
2022-10-17T01:10:09.251Z,14.70
2022-10-17T01:12:35.959Z,14.70
2022-10-17T01:15:36.684Z,14.70
2022-10-17T01:18:37.354Z,14.70
2022-10-17T01:21:54.342Z,14.70
2022-10-17T01:24:45.147Z,14.70
2022-10-17T01:28:16.326Z,14.70
2022-10-17T01:31:17.495Z,14.70
2022-10-17T01:34:00.836Z,14.80
2022-10-17T01:36:58.780Z,14.70
2022-10-17T01:39:48.167Z,14.80
2022-10-17T01:42:36.123Z,14.80
2022-10-17T01:45:19.149Z,14.80
2022-10-17T01:47:52.426Z,14.90
2022-10-17T01:50:30.924Z,14.90
2022-10-17T01:53:07.633Z,14.90
2022-10-17T01:55:42.948Z,14.90
2022-10-17T01:58:31.801Z,14.90
2022-10-17T02:01:04.785Z,14.90
2022-10-17T02:03:34.847Z,14.90
2022-10-17T02:06:02.379Z,14.90
2022-10-17T02:08:41.547Z,14.90
2022-10-17T02:11:21.489Z,14.90
2022-10-17T02:14:24.836Z,14.90
2022-10-17T02:17:08.232Z,15.00
2022-10-17T02:19:54.247Z,15.00
2022-10-17T02:22:58.587Z,15.00
2022-10-17T02:25:42.036Z,15.00
2022-10-17T02:29:04.714Z,15.00
2022-10-17T02:31:49.689Z,15.00
2022-10-17T02:34:42.304Z,15.00
2022-10-17T02:37:14.835Z,15.10
2022-10-17T02:39:44.292Z,15.10
2022-10-17T02:42:14.909Z,15.10
2022-10-17T02:44:46.144Z,15.10
2022-10-17T02:47:36.681Z,15.10
2022-10-17T02:50:04.600Z,15.10
2022-10-17T02:53:01.106Z,15.20
2022-10-17T02:55:33.521Z,15.20
2022-10-17T02:58:07.985Z,15.10
2022-10-17T03:00:40.927Z,15.10
2022-10-17T03:03:31.419Z,15.20
2022-10-17T03:06:01.808Z,15.20
2022-10-17T03:08:28.590Z,15.20
2022-10-17T03:10:56.377Z,15.20
2022-10-17T03:13:23.559Z,15.20
2022-10-17T03:15:50.349Z,15.30
2022-10-17T03:18:17.191Z,15.30
2022-10-17T03:20:45.178Z,15.30
2022-10-17T03:23:11.910Z,15.30
2022-10-17T03:25:38.704Z,15.30
2022-10-17T03:28:05.639Z,15.40
2022-10-17T03:30:33.698Z,15.40
2022-10-17T03:33:00.776Z,15.40
2022-10-17T03:35:27.878Z,15.40
2022-10-17T03:37:56.415Z,15.50
2022-10-17T03:40:24.655Z,15.50
2022-10-17T03:42:51.489Z,15.50
2022-10-17T03:45:18.312Z,15.50
2022-10-17T03:47:46.220Z,15.50
2022-10-17T03:50:13.119Z,15.60
2022-10-17T03:52:40.717Z,15.60
2022-10-17T03:55:08.684Z,15.60
2022-10-17T03:57:36.939Z,15.60
2022-10-17T04:00:06.381Z,15.60
2022-10-17T04:02:41.219Z,15.60
2022-10-17T04:05:11.379Z,15.60
2022-10-17T04:07:38.223Z,15.60
2022-10-17T04:10:06.462Z,15.60
2022-10-17T04:12:33.689Z,15.60
2022-10-17T04:15:00.565Z,15.60
2022-10-17T04:17:34.571Z,15.60
2022-10-17T04:20:05.605Z,15.60
2022-10-17T04:22:32.547Z,15.60
2022-10-17T04:24:59.456Z,15.60
2022-10-17T04:27:46.462Z,15.60
2022-10-17T04:30:13.748Z,15.50
2022-10-17T04:32:41.287Z,15.50
2022-10-17T04:35:14.442Z,15.50
2022-10-17T04:37:46.032Z,15.60
2022-10-17T04:40:17.899Z,15.60
2022-10-17T04:42:44.985Z,15.60
2022-10-17T04:45:14.975Z,15.60
2022-10-17T04:47:42.383Z,15.60
2022-10-17T04:50:09.484Z,15.60
2022-10-17T04:52:39.235Z,15.60
2022-10-17T04:55:08.294Z,15.60
2022-10-17T04:57:36.224Z,15.70
2022-10-17T05:00:10.790Z,15.70
2022-10-17T05:02:51.517Z,15.70
2022-10-17T05:05:18.348Z,15.70
2022-10-17T05:07:47.170Z,15.70
2022-10-17T05:10:18.340Z,15.70
2022-10-17T05:12:49.385Z,15.70
2022-10-17T05:15:18.178Z,15.70
2022-10-17T05:17:44.976Z,15.70
2022-10-17T05:20:12.276Z,15.70
2022-10-17T05:22:42.043Z,15.70
2022-10-17T05:25:10.227Z,15.70
2022-10-17T05:27:38.061Z,15.70
2022-10-17T05:30:05.873Z,15.70
2022-10-17T05:32:34.527Z,15.70
2022-10-17T05:35:01.744Z,15.70
2022-10-17T05:37:30.647Z,15.80
2022-10-17T05:39:58.144Z,15.80
2022-10-17T05:42:26.009Z,15.80
2022-10-17T05:44:52.963Z,15.90
2022-10-17T05:47:19.967Z,15.90
2022-10-17T05:49:52.106Z,15.90
2022-10-17T05:52:23.687Z,15.90
2022-10-17T05:55:01.662Z,15.90
2022-10-17T05:57:28.460Z,15.90
2022-10-17T05:59:56.851Z,15.90
2022-10-17T06:02:23.699Z,15.90
2022-10-17T06:04:50.588Z,16.00
2022-10-17T06:07:19.702Z,15.90
2022-10-17T06:09:47.868Z,16.00
2022-10-17T06:12:15.061Z,15.90
2022-10-17T06:14:41.876Z,16.00
2022-10-17T06:17:13.378Z,16.00
2022-10-17T06:19:44.670Z,16.00
2022-10-17T06:22:14.149Z,16.00
2022-10-17T06:24:42.375Z,16.00
2022-10-17T06:27:11.754Z,16.00
2022-10-17T06:29:39.367Z,16.00
2022-10-17T06:32:09.839Z,16.00
2022-10-17T06:34:40.199Z,16.00
2022-10-17T06:37:07.152Z,16.00
2022-10-17T06:39:36.042Z,16.10
2022-10-17T06:42:07.310Z,16.00
2022-10-17T06:44:57.297Z,16.10
2022-10-17T06:47:41.103Z,16.10
2022-10-17T06:50:37.477Z,16.10
2022-10-17T06:53:17.401Z,16.10
2022-10-17T06:56:10.393Z,16.10
2022-10-17T06:58:46.932Z,16.10
2022-10-17T07:01:23.926Z,16.20
2022-10-17T07:03:54.860Z,16.20
2022-10-17T07:06:24.538Z,16.20
2022-10-17T07:08:52.356Z,16.20
2022-10-17T07:11:22.154Z,16.20
2022-10-17T07:13:51.860Z,16.20
2022-10-17T07:16:18.798Z,16.20
2022-10-17T07:18:51.507Z,16.20
2022-10-17T07:21:19.226Z,16.20
2022-10-17T07:23:46.384Z,16.20
2022-10-17T07:26:16.768Z,16.20
2022-10-17T07:28:46.310Z,16.20
2022-10-17T07:31:34.115Z,16.20
2022-10-17T07:34:01.246Z,16.20
2022-10-17T07:36:28.664Z,16.30
2022-10-17T07:38:56.645Z,16.30
2022-10-17T07:41:24.727Z,16.30
2022-10-17T07:43:51.577Z,16.30
2022-10-17T07:46:23.311Z,16.30
2022-10-17T07:48:50.214Z,16.30
2022-10-17T07:51:18.415Z,16.30
2022-10-17T07:53:48.710Z,16.30
2022-10-17T07:56:16.191Z,16.30
2022-10-17T07:58:42.977Z,16.30
2022-10-17T08:01:15.433Z,16.30
2022-10-17T08:03:45.166Z,16.30
2022-10-17T08:06:13.072Z,16.40
2022-10-17T08:08:40.251Z,16.40
2022-10-17T08:11:11.554Z,16.50
2022-10-17T08:13:40.235Z,16.50
2022-10-17T08:16:10.771Z,16.50
2022-10-17T08:18:40.512Z,16.60
2022-10-17T08:21:08.350Z,16.60
2022-10-17T08:23:36.487Z,16.60
2022-10-17T08:26:08.099Z,16.60
2022-10-17T08:28:36.485Z,16.60
2022-10-17T08:31:11.942Z,16.60
2022-10-17T08:33:39.215Z,16.60
2022-10-17T08:36:06.986Z,16.60
2022-10-17T08:38:36.918Z,16.60
2022-10-17T08:41:20.673Z,16.70
2022-10-17T08:44:01.380Z,16.70
2022-10-17T08:46:44.185Z,16.70
2022-10-17T08:49:46.828Z,16.70
2022-10-17T08:52:38.438Z,16.70
2022-10-17T08:55:37.023Z,16.70
2022-10-17T08:58:24.065Z,16.80
2022-10-17T09:01:32.687Z,16.80
2022-10-17T09:04:20.051Z,16.80
2022-10-17T09:07:07.217Z,16.80
2022-10-17T09:10:03.426Z,16.80
2022-10-17T09:13:22.386Z,16.80
2022-10-17T09:16:07.963Z,16.90
2022-10-17T09:18:45.964Z,16.90
2022-10-17T09:21:39.492Z,16.90
2022-10-17T09:24:19.168Z,16.90
2022-10-17T09:26:46.882Z,16.90
2022-10-17T09:29:27.712Z,16.90
2022-10-17T09:32:18.972Z,16.90
2022-10-17T09:34:45.936Z,16.90
2022-10-17T09:37:17.740Z,17.00
2022-10-17T09:39:45.608Z,16.90
2022-10-17T09:42:21.600Z,16.90
2022-10-17T09:45:19.379Z,16.90
2022-10-17T09:47:58.547Z,16.90
2022-10-17T09:50:34.833Z,17.00
2022-10-17T09:53:23.235Z,17.00
2022-10-17T09:55:56.645Z,17.00
2022-10-17T09:58:33.111Z,17.10
2022-10-17T10:01:24.551Z,17.10
2022-10-17T10:04:15.212Z,17.10
2022-10-17T10:07:03.854Z,17.10
2022-10-17T10:09:36.861Z,17.10
2022-10-17T10:12:23.881Z,17.10
2022-10-17T10:14:53.420Z,17.10
2022-10-17T10:17:44.050Z,17.10
2022-10-17T10:20:28.662Z,17.10
2022-10-17T10:23:18.157Z,17.10
2022-10-17T10:25:59.504Z,17.10
2022-10-17T10:28:31.945Z,17.10
2022-10-17T10:31:04.579Z,17.10
2022-10-17T10:33:34.838Z,17.10
2022-10-17T10:36:06.266Z,17.10
2022-10-17T10:38:35.165Z,17.10
2022-10-17T10:41:07.625Z,17.20
2022-10-17T10:43:40.282Z,17.20
2022-10-17T10:46:23.629Z,17.20
2022-10-17T10:48:59.662Z,17.20
2022-10-17T10:51:47.371Z,17.30
2022-10-17T10:54:28.071Z,17.20
2022-10-17T10:56:59.992Z,17.20
2022-10-17T10:59:35.508Z,17.20
2022-10-17T11:02:17.570Z,17.20
2022-10-17T11:05:05.697Z,17.10
2022-10-17T11:07:41.471Z,17.10
2022-10-17T11:10:37.249Z,17.10
2022-10-17T11:13:14.916Z,17.10
2022-10-17T11:16:19.128Z,17.10
2022-10-17T11:19:12.124Z,17.10
2022-10-17T11:21:55.580Z,17.10
2022-10-17T11:24:29.830Z,17.20
2022-10-17T11:27:04.262Z,17.20
2022-10-17T11:29:35.394Z,17.20
2022-10-17T11:32:28.549Z,17.30
2022-10-17T11:35:14.773Z,17.30
2022-10-17T11:37:53.047Z,17.30
2022-10-17T11:40:31.829Z,17.30
2022-10-17T11:43:10.849Z,17.30
2022-10-17T11:45:48.278Z,17.30
2022-10-17T11:48:41.505Z,17.20
2022-10-17T11:54:15.063Z,17.30
2022-10-17T11:57:37.290Z,17.30
2022-10-17T12:00:30.623Z,17.30
2022-10-17T12:03:27.200Z,17.30
2022-10-17T12:06:14.884Z,17.30
2022-10-17T12:09:11.784Z,17.20
2022-10-17T12:11:57.568Z,17.20
2022-10-17T12:14:45.685Z,17.20
2022-10-17T12:17:33.894Z,17.20
2022-10-17T12:20:25.581Z,17.20
2022-10-17T12:22:56.978Z,17.20
2022-10-17T12:25:29.794Z,17.20
2022-10-17T12:28:27.896Z,17.20
2022-10-17T12:31:15.700Z,17.20
2022-10-17T12:33:52.391Z,17.20
2022-10-17T12:36:22.097Z,17.10
2022-10-17T12:38:52.234Z,17.10
2022-10-17T12:41:40.850Z,17.10
2022-10-17T12:44:13.891Z,17.10
2022-10-17T12:47:37.521Z,17.00
2022-10-17T12:50:42.863Z,17.00
2022-10-17T12:53:19.251Z,16.90
2022-10-17T12:55:47.672Z,16.90
2022-10-17T12:58:16.459Z,16.90
2022-10-17T13:01:11.587Z,16.90
2022-10-17T13:03:45.708Z,16.80
2022-10-17T13:06:22.835Z,16.80
2022-10-17T13:09:03.467Z,16.90
2022-10-17T13:11:36.068Z,17.00
2022-10-17T13:14:12.516Z,17.00
2022-10-17T13:16:54.647Z,17.10
2022-10-17T13:19:26.578Z,17.20
2022-10-17T13:22:00.960Z,17.30
2022-10-17T13:24:35.840Z,17.30
2022-10-17T13:27:04.845Z,17.40
2022-10-17T13:29:32.868Z,17.40
2022-10-17T13:32:03.971Z,17.30
2022-10-17T13:34:33.569Z,17.30
2022-10-17T13:37:13.342Z,17.30
2022-10-17T13:40:17.466Z,17.40
2022-10-17T13:42:40.506Z,17.40
2022-10-17T13:45:36.758Z,17.50
2022-10-17T13:48:09.975Z,17.40
2022-10-17T13:50:45.132Z,17.40
2022-10-17T13:53:31.324Z,17.40
2022-10-17T13:59:18.829Z,17.50
2022-10-17T14:01:49.612Z,17.40
2022-10-17T14:04:20.092Z,17.40
2022-10-17T14:06:51.226Z,17.50
2022-10-17T14:09:25.748Z,17.50
2022-10-17T14:12:10.992Z,17.50
2022-10-17T14:15:05.033Z,17.50
2022-10-17T14:17:30.162Z,17.60
2022-10-17T14:20:26.267Z,17.60
2022-10-17T14:23:20.990Z,17.60
2022-10-17T14:25:41.217Z,17.70
2022-10-17T14:28:11.626Z,17.70
2022-10-17T14:30:57.560Z,17.70
2022-10-17T14:33:30.556Z,17.80
2022-10-17T14:36:00.795Z,17.80
2022-10-17T14:38:29.839Z,17.80
2022-10-17T14:41:22.088Z,17.90
2022-10-17T14:44:03.404Z,17.90
2022-10-17T14:46:30.809Z,17.90
2022-10-17T14:49:26.194Z,17.90
2022-10-17T14:52:18.621Z,17.90
2022-10-17T14:54:49.039Z,17.90
2022-10-17T14:57:33.608Z,17.90
2022-10-17T15:00:00.325Z,17.90
2022-10-17T15:02:30.636Z,17.80
2022-10-17T15:04:57.673Z,17.80
2022-10-17T15:07:24.553Z,17.80
2022-10-17T15:09:53.775Z,17.80
2022-10-17T15:12:24.657Z,17.80
2022-10-17T15:14:52.312Z,17.80
2022-10-17T15:17:25.527Z,17.80
2022-10-17T15:19:52.648Z,17.80
2022-10-17T15:22:19.927Z,17.80
2022-10-17T15:24:47.280Z,17.70
2022-10-17T15:27:27.606Z,17.70
2022-10-17T15:29:54.648Z,17.80
2022-10-17T15:32:21.479Z,17.80
2022-10-17T15:34:48.301Z,17.80
2022-10-17T15:37:25.771Z,17.80
2022-10-17T15:39:54.978Z,17.80
2022-10-17T15:42:27.540Z,17.70
2022-10-17T15:44:55.322Z,17.70
2022-10-17T15:47:33.285Z,17.60
2022-10-17T15:50:01.521Z,17.50
2022-10-17T15:52:28.578Z,17.40
2022-10-17T15:54:57.381Z,17.40
2022-10-17T15:57:30.308Z,17.30
2022-10-17T16:00:00.258Z,17.30
2022-10-17T16:02:27.360Z,17.30
2022-10-17T16:04:54.146Z,17.30
2022-10-17T16:07:21.755Z,17.20
2022-10-17T16:09:48.662Z,17.20
2022-10-17T16:12:29.974Z,17.20
2022-10-17T16:14:57.235Z,17.20
2022-10-17T16:17:24.001Z,17.10
2022-10-17T16:19:50.722Z,17.10
2022-10-17T16:22:38.324Z,17.10
2022-10-17T16:25:09.716Z,17.10
2022-10-17T16:27:37.698Z,17.10
2022-10-17T16:30:07.958Z,17.10
2022-10-17T16:32:34.896Z,17.10
2022-10-17T16:35:01.745Z,17.10
2022-10-17T16:37:28.463Z,17.10
2022-10-17T16:39:55.233Z,17.10
2022-10-17T16:42:23.019Z,17.00
2022-10-17T16:44:50.827Z,17.00
2022-10-17T16:47:18.871Z,17.00
2022-10-17T16:49:45.939Z,17.00
2022-10-17T16:52:13.264Z,16.90
2022-10-17T16:54:40.284Z,16.90
2022-10-17T16:57:07.180Z,16.90
2022-10-17T16:59:33.965Z,16.80
2022-10-17T17:02:00.672Z,16.80
2022-10-17T17:04:27.494Z,16.80
2022-10-17T17:06:54.391Z,16.80
2022-10-17T17:09:21.370Z,16.70
2022-10-17T17:11:48.304Z,16.70
2022-10-17T17:14:15.056Z,16.70
2022-10-17T17:16:43.239Z,16.70
2022-10-17T17:19:16.957Z,16.70
2022-10-17T17:21:49.911Z,16.70
2022-10-17T17:24:20.873Z,16.60
2022-10-17T17:26:53.721Z,16.60
2022-10-17T17:29:22.364Z,16.60
2022-10-17T17:31:50.313Z,16.60
2022-10-17T17:34:18.338Z,16.60
2022-10-17T17:36:45.870Z,16.50
2022-10-17T17:39:14.781Z,16.60
2022-10-17T17:41:43.048Z,16.60
2022-10-17T17:44:16.453Z,16.60
2022-10-17T17:46:44.528Z,16.60
2022-10-17T17:49:12.215Z,16.60
2022-10-17T17:51:41.405Z,16.60
2022-10-17T17:54:11.412Z,16.50
2022-10-17T17:56:38.621Z,16.50
2022-10-17T17:59:05.653Z,16.60
2022-10-17T18:01:38.181Z,16.50
2022-10-17T18:04:08.574Z,16.50
2022-10-17T18:06:37.304Z,16.60
2022-10-17T18:09:04.979Z,16.50
2022-10-17T18:11:32.299Z,16.50
2022-10-17T18:14:03.990Z,16.40
2022-10-17T18:16:33.044Z,16.30
2022-10-17T18:19:07.172Z,16.30
2022-10-17T18:21:36.187Z,16.40
2022-10-17T18:24:04.751Z,16.40
2022-10-17T18:26:31.623Z,16.40
2022-10-17T18:28:58.698Z,16.40
2022-10-17T18:31:32.190Z,16.40
2022-10-17T18:34:02.742Z,16.50
2022-10-17T18:36:31.090Z,16.40
2022-10-17T18:39:00.356Z,16.40
2022-10-17T18:41:28.131Z,16.40
2022-10-17T18:43:56.703Z,16.30
2022-10-17T18:46:27.441Z,16.30
2022-10-17T18:48:55.136Z,16.30
2022-10-17T18:51:25.468Z,16.30
2022-10-17T18:53:56.181Z,16.20
2022-10-17T18:56:23.643Z,16.20
2022-10-17T18:58:51.045Z,16.20
2022-10-17T19:01:22.483Z,16.10
2022-10-17T19:03:52.526Z,16.00
2022-10-17T19:06:22.739Z,16.00
2022-10-17T19:08:49.838Z,16.00
2022-10-17T19:11:23.993Z,16.10
2022-10-17T19:13:52.324Z,16.10
2022-10-17T19:16:29.081Z,16.10
2022-10-17T19:19:10.764Z,16.00
2022-10-17T19:21:37.639Z,15.90
2022-10-17T19:24:07.483Z,15.90
2022-10-17T19:26:36.679Z,15.90
2022-10-17T19:29:05.123Z,16.00
2022-10-17T19:31:35.094Z,16.00
2022-10-17T19:34:02.573Z,16.00
2022-10-17T19:36:33.874Z,15.90
2022-10-17T19:39:04.685Z,16.00
2022-10-17T19:41:32.177Z,16.00
2022-10-17T19:44:00.664Z,16.00
2022-10-17T19:46:29.975Z,16.00
2022-10-17T19:48:57.657Z,15.80
2022-10-17T19:51:25.606Z,15.80
2022-10-17T19:53:55.923Z,15.80
2022-10-17T19:56:24.929Z,15.70
2022-10-17T19:58:52.185Z,15.80
2022-10-17T20:01:28.341Z,15.70
2022-10-17T20:03:56.354Z,15.80
2022-10-17T20:06:24.201Z,15.80
2022-10-17T20:08:51.410Z,15.70
2022-10-17T20:11:28.318Z,15.70
2022-10-17T20:13:56.478Z,15.70
2022-10-17T20:16:30.740Z,15.70
2022-10-17T20:19:06.492Z,15.70
2022-10-17T20:21:37.466Z,15.70
2022-10-17T20:24:07.839Z,15.70
2022-10-17T20:26:38.663Z,15.70
2022-10-17T20:29:14.115Z,15.70
2022-10-17T20:31:43.048Z,15.80
2022-10-17T20:34:14.691Z,15.80
2022-10-17T20:36:42.000Z,15.80
2022-10-17T20:39:12.676Z,15.70
2022-10-17T20:41:40.195Z,15.70
2022-10-17T20:44:07.391Z,15.70
2022-10-17T20:46:37.844Z,15.70
2022-10-17T20:49:08.202Z,15.70
2022-10-17T20:51:35.579Z,15.70
2022-10-17T20:54:03.138Z,15.70
2022-10-17T20:56:32.948Z,15.70
2022-10-17T20:59:07.486Z,15.70
2022-10-17T21:01:35.815Z,15.60
2022-10-17T21:04:26.953Z,15.70
2022-10-17T21:06:52.022Z,15.70
2022-10-17T21:09:19.648Z,15.60
2022-10-17T21:11:46.508Z,15.60
2022-10-17T21:14:13.243Z,15.60
2022-10-17T21:16:41.207Z,15.60
2022-10-17T21:19:10.437Z,15.60
2022-10-17T21:21:41.319Z,15.60
2022-10-17T21:24:14.064Z,15.50
2022-10-17T21:26:43.335Z,15.50
2022-10-17T21:29:12.530Z,15.40
2022-10-17T21:31:43.270Z,15.40
2022-10-17T21:34:24.455Z,15.40
2022-10-17T21:36:51.917Z,15.40
2022-10-17T21:39:18.938Z,15.40
2022-10-17T21:41:45.896Z,15.40
2022-10-17T21:44:17.829Z,15.40
2022-10-17T21:46:45.867Z,15.40
2022-10-17T21:49:17.081Z,15.30
2022-10-17T21:51:45.799Z,15.30
2022-10-17T21:54:12.757Z,15.20
2022-10-17T21:56:40.618Z,15.20
2022-10-17T21:59:07.904Z,15.20
2022-10-17T22:01:42.612Z,15.20
2022-10-17T22:04:14.983Z,15.20
2022-10-17T22:06:44.733Z,15.20
2022-10-17T22:09:22.695Z,15.20
2022-10-17T22:11:53.125Z,15.20
2022-10-17T22:14:23.248Z,15.10
2022-10-17T22:16:50.456Z,15.10
2022-10-17T22:19:22.699Z,15.10
2022-10-17T22:21:49.714Z,15.10
2022-10-17T22:26:51.941Z,15.00
2022-10-17T22:29:18.850Z,15.10
2022-10-17T22:31:45.870Z,15.00
2022-10-17T22:34:15.610Z,15.00
2022-10-17T22:36:42.991Z,15.00
2022-10-17T22:39:10.832Z,15.00
2022-10-17T22:41:37.568Z,15.00
2022-10-17T22:44:04.780Z,15.00
2022-10-17T22:46:31.527Z,14.90
2022-10-17T22:48:58.404Z,14.90
2022-10-17T22:51:25.208Z,14.90
2022-10-17T22:53:51.970Z,14.90
2022-10-17T22:56:20.820Z,14.90
2022-10-17T22:58:48.241Z,14.80
2022-10-17T23:01:21.509Z,14.80
2022-10-17T23:03:49.714Z,14.80
2022-10-17T23:06:17.178Z,14.80
2022-10-17T23:08:44.490Z,14.80
2022-10-17T23:11:11.641Z,14.80
2022-10-17T23:13:40.575Z,14.80
2022-10-17T23:16:08.135Z,14.80
2022-10-17T23:18:35.334Z,14.80
2022-10-17T23:21:02.109Z,14.80
2022-10-17T23:23:28.819Z,14.80
2022-10-17T23:25:56.378Z,14.80
2022-10-17T23:28:23.122Z,14.80
2022-10-17T23:30:49.900Z,14.70
2022-10-17T23:33:16.625Z,14.70
2022-10-17T23:35:43.405Z,14.60
2022-10-17T23:38:10.417Z,14.70
2022-10-17T23:40:37.520Z,14.70
2022-10-17T23:43:04.803Z,14.80
2022-10-17T23:45:36.146Z,14.70
2022-10-17T23:48:05.438Z,14.70
2022-10-17T23:50:32.203Z,14.60
2022-10-17T23:52:58.980Z,14.60
2022-10-17T23:55:25.910Z,14.70
2022-10-17T23:57:53.007Z,14.60
